Airfield :
LOGIN :

Register | Disclaimer

   EN    FR    IT 

 










Legend :    VFR   Marginal VFR   IFR   Intensive IFR   Very Intensive IFR
Visi :
Ceiling :
>= 8 km
>= 3000ft
5 to 8 km
1000 to 3000 ft
1500m to 5 km
500 to 1000 ft
800 to 1500m
200 to 500 ft
< 800m
< 200 ft
Symbols :   Thunderstorms  Fog  Heavy snow  Heavy precipitations  Wind > 20 kt
SIGMETs :     Misc.  Thunderstorms  Icing  Turbulence  Mountain Waves  Volcanic Ashes






- Airport Elevation : 1234 ft
- IATA code : LUX


ELLX - Luxembourg Findel

CURRENT METAR :
  • 280650Z 02004KT 330V070 0200 R24/0250N FG VV001 01/01 Q1021 NOSIG

EXPIRED METARs :
  • 280620Z 03006KT 350V060 0300 R24/0300V0750N FG VV001 01/00 Q1021 NOSIG
  • 280550Z 36005KT 0300 R24/0650N FG VV001 01/01 Q1020 NOSIG
  • 280520Z 05006KT 010V080 0500 R24/0450V0800N FG VV001 01/01 Q1020 TEMPO 0300 FG
  • 280450Z 05004KT 350V090 0700 R24/0450D FG BKN001 01/01 Q1020 TEMPO 0300 FG VV002
  • 280420Z 36005KT 0900 R24/0650V1400D FG BKN001 01/01 Q1020 TEMPO 0300 FG VV002
  • 280350Z 02004KT 350V050 1200 R06/0800V1300D BR BKN001 01/01 Q1019 TEMPO 0300 FG VV002
  • 280320Z AUTO 05006KT //// R06/1100VP2000D VV001 01/01 Q1019 NOSIG
  • 280250Z AUTO 36007KT //// R06/P2000N VV002 01/01 Q1019 NOSIG
  • 280220Z AUTO 02006KT 330V040 2000 BR OVC003/// 02/01 Q1019 NOSIG

TAF TAF ELLX
Valid from the 28 at 06:00 until the 29 at 12:00 UTC


280500Z 2806/2912 02005KT 0300 FG VV001
TEMPO 2806/2809 1500 BCFG SCT000 BKN002
TEMPO 2809/2810 2100 BR BKN004
BECMG 2810/2813 24004KT CAVOK
PROB40 2901/2910 0300 FG VV002
ATIS : +352 4798 27300
Met : +352 4798 27010 / 27050



MET'MAP, your aeronautical weather chart ! - Copyright ORBIFLY December 2007 - Disclaimer

ORBIFLY MET'MAP TEAM :

Programming & Development : Alexandra Zaïnal
Original concept : Baudouin d'Aumeries
Technical & hardware support : Manuel Goepfert
Assistance : Marc-Olivier Méhu




SOURCES & CREDITS :

   NOAA